sensor_id;sensor_type;location;lat;lon;timestamp;P1;P2;P0
81998;PMS5003;71598;46.516;-122.928;2023-11-18T00:27:13;59;56;
81998;PMS5003;71598;46.516;-122.928;2023-11-18T00:29:38;57;56;
81998;PMS5003;71598;46.516;-122.928;2023-11-18T00:32:01;67;65;
81998;PMS5003;71598;46.516;-122.928;2023-11-18T00:34:27;62;60;
81998;PMS5003;71598;46.516;-122.928;2023-11-18T00:36:53;69;66;
81998;PMS5003;71598;46.516;-122.928;2023-11-18T00:39:18;69;68;
81998;PMS5003;71598;46.516;-122.928;2023-11-18T00:41:44;64;63;
81998;PMS5003;71598;46.516;-122.928;2023-11-18T00:44:09;73;69;
81998;PMS5003;71598;46.516;-122.928;2023-11-18T00:46:35;65;64;
81998;PMS5003;71598;46.516;-122.928;2023-11-18T00:49:00;62;60;
81998;PMS5003;71598;46.516;-122.928;2023-11-18T00:51:25;72;69;
81998;PMS5003;71598;46.516;-122.928;2023-11-18T00:53:51;58;57;
81998;PMS5003;71598;46.516;-122.928;2023-11-18T00:56:17;69;67;
81998;PMS5003;71598;46.516;-122.928;2023-11-18T00:58:42;62;59;
81998;PMS5003;71598;46.516;-122.928;2023-11-18T01:01:08;63;63;
81998;PMS5003;71598;46.516;-122.928;2023-11-18T01:03:33;62;62;
81998;PMS5003;71598;46.516;-122.928;2023-11-18T01:05:58;66;66;
81998;PMS5003;71598;46.516;-122.928;2023-11-18T01:08:24;65;64;
81998;PMS5003;71598;46.516;-122.928;2023-11-18T01:10:50;67;65;
81998;PMS5003;71598;46.516;-122.928;2023-11-18T01:13:16;65;65;
81998;PMS5003;71598;46.516;-122.928;2023-11-18T01:15:41;65;63;
81998;PMS5003;71598;46.516;-122.928;2023-11-18T01:18:06;64;62;
81998;PMS5003;71598;46.516;-122.928;2023-11-18T01:20:32;61;61;
81998;PMS5003;71598;46.516;-122.928;2023-11-18T01:22:58;57;56;
81998;PMS5003;71598;46.516;-122.928;2023-11-18T01:25:23;55;54;
81998;PMS5003;71598;46.516;-122.928;2023-11-18T01:27:49;57;57;
81998;PMS5003;71598;46.516;-122.928;2023-11-18T01:30:15;59;58;
81998;PMS5003;71598;46.516;-122.928;2023-11-18T01:32:41;64;63;
81998;PMS5003;71598;46.516;-122.928;2023-11-18T01:35:06;60;60;
81998;PMS5003;71598;46.516;-122.928;2023-11-18T01:37:31;64;64;
81998;PMS5003;71598;46.516;-122.928;2023-11-18T01:39:57;63;63;
81998;PMS5003;71598;46.516;-122.928;2023-11-18T01:42:22;67;63;
81998;PMS5003;71598;46.516;-122.928;2023-11-18T01:44:48;58;57;
81998;PMS5003;71598;46.516;-122.928;2023-11-18T01:47:14;59;56;
81998;PMS5003;71598;46.516;-122.928;2023-11-18T01:49:40;56;56;
81998;PMS5003;71598;46.516;-122.928;2023-11-18T01:52:05;57;56;
81998;PMS5003;71598;46.516;-122.928;2023-11-18T01:54:30;50;48;
81998;PMS5003;71598;46.516;-122.928;2023-11-18T01:56:56;57;55;
81998;PMS5003;71598;46.516;-122.928;2023-11-18T01:59:21;57;57;
81998;PMS5003;71598;46.516;-122.928;2023-11-18T02:01:52;59;56;
81998;PMS5003;71598;46.516;-122.928;2023-11-18T02:04:11;54;54;
81998;PMS5003;71598;46.516;-122.928;2023-11-18T02:06:37;58;55;
81998;PMS5003;71598;46.516;-122.928;2023-11-18T02:09:03;58;57;
81998;PMS5003;71598;46.516;-122.928;2023-11-18T02:11:30;53;52;
81998;PMS5003;71598;46.516;-122.928;2023-11-18T02:13:53;48;47;
81998;PMS5003;71598;46.516;-122.928;2023-11-18T02:16:18;53;51;
81998;PMS5003;71598;46.516;-122.928;2023-11-18T02:18:43;54;49;
81998;PMS5003;71598;46.516;-122.928;2023-11-18T02:21:09;49;49;
81998;PMS5003;71598;46.516;-122.928;2023-11-18T02:23:34;48;48;
81998;PMS5003;71598;46.516;-122.928;2023-11-18T02:26:00;50;47;
81998;PMS5003;71598;46.516;-122.928;2023-11-18T02:28:25;47;45;
81998;PMS5003;71598;46.516;-122.928;2023-11-18T02:30:51;48;48;
81998;PMS5003;71598;46.516;-122.928;2023-11-18T02:33:18;51;48;
81998;PMS5003;71598;46.516;-122.928;2023-11-18T02:35:44;50;49;
81998;PMS5003;71598;46.516;-122.928;2023-11-18T02:38:06;45;45;
81998;PMS5003;71598;46.516;-122.928;2023-11-18T02:40:32;45;44;
81998;PMS5003;71598;46.516;-122.928;2023-11-18T02:42:57;46;44;
81998;PMS5003;71598;46.516;-122.928;2023-11-18T02:45:23;46;46;
81998;PMS5003;71598;46.516;-122.928;2023-11-18T02:47:48;42;41;
81998;PMS5003;71598;46.516;-122.928;2023-11-18T02:50:14;43;42;
81998;PMS5003;71598;46.516;-122.928;2023-11-18T02:52:40;42;40;
81998;PMS5003;71598;46.516;-122.928;2023-11-18T02:55:06;41;39;
81998;PMS5003;71598;46.516;-122.928;2023-11-18T02:57:31;40;39;
81998;PMS5003;71598;46.516;-122.928;2023-11-18T02:59:57;43;42;
81998;PMS5003;71598;46.516;-122.928;2023-11-18T03:02:22;45;44;
81998;PMS5003;71598;46.516;-122.928;2023-11-18T03:04:47;39;39;
81998;PMS5003;71598;46.516;-122.928;2023-11-18T03:07:12;40;39;
81998;PMS5003;71598;46.516;-122.928;2023-11-18T03:09:47;39;39;
81998;PMS5003;71598;46.516;-122.928;2023-11-18T03:12:12;41;41;
81998;PMS5003;71598;46.516;-122.928;2023-11-18T03:14:30;39;38;
81998;PMS5003;71598;46.516;-122.928;2023-11-18T03:16:54;42;40;
81998;PMS5003;71598;46.516;-122.928;2023-11-18T03:19:21;38;38;
81998;PMS5003;71598;46.516;-122.928;2023-11-18T03:21:50;38;38;
81998;PMS5003;71598;46.516;-122.928;2023-11-18T03:24:11;36;35;
81998;PMS5003;71598;46.516;-122.928;2023-11-18T03:26:36;35;35;
81998;PMS5003;71598;46.516;-122.928;2023-11-18T03:29:03;36;36;
81998;PMS5003;71598;46.516;-122.928;2023-11-18T03:31:28;34;32;
81998;PMS5003;71598;46.516;-122.928;2023-11-18T03:33:54;32;32;
81998;PMS5003;71598;46.516;-122.928;2023-11-18T03:36:20;36;34;
81998;PMS5003;71598;46.516;-122.928;2023-11-18T03:38:44;33;32;
81998;PMS5003;71598;46.516;-122.928;2023-11-18T03:41:10;30;30;
81998;PMS5003;71598;46.516;-122.928;2023-11-18T03:43:37;32;32;
81998;PMS5003;71598;46.516;-122.928;2023-11-18T03:46:02;33;32;
81998;PMS5003;71598;46.516;-122.928;2023-11-18T03:48:27;31;31;
81998;PMS5003;71598;46.516;-122.928;2023-11-18T03:50:52;35;35;
81998;PMS5003;71598;46.516;-122.928;2023-11-18T03:53:18;36;33;
81998;PMS5003;71598;46.516;-122.928;2023-11-18T03:55:43;33;33;
81998;PMS5003;71598;46.516;-122.928;2023-11-18T03:58:09;32;30;
81998;PMS5003;71598;46.516;-122.928;2023-11-18T04:00:34;26;26;
81998;PMS5003;71598;46.516;-122.928;2023-11-18T04:02:59;33;30;
81998;PMS5003;71598;46.516;-122.928;2023-11-18T04:05:25;31;31;
81998;PMS5003;71598;46.516;-122.928;2023-11-18T04:07:50;32;31;
81998;PMS5003;71598;46.516;-122.928;2023-11-18T04:10:16;30;30;
81998;PMS5003;71598;46.516;-122.928;2023-11-18T04:12:41;28;28;
81998;PMS5003;71598;46.516;-122.928;2023-11-18T04:15:07;32;31;
81998;PMS5003;71598;46.516;-122.928;2023-11-18T04:17:32;29;28;
81998;PMS5003;71598;46.516;-122.928;2023-11-18T04:19:58;28;27;
81998;PMS5003;71598;46.516;-122.928;2023-11-18T04:22:23;25;24;
81998;PMS5003;71598;46.516;-122.928;2023-11-18T04:24:48;30;29;
81998;PMS5003;71598;46.516;-122.928;2023-11-18T04:27:14;29;28;
81998;PMS5003;71598;46.516;-122.928;2023-11-18T04:29:40;33;30;
81998;PMS5003;71598;46.516;-122.928;2023-11-18T04:32:06;30;30;
81998;PMS5003;71598;46.516;-122.928;2023-11-18T04:34:32;36;35;
81998;PMS5003;71598;46.516;-122.928;2023-11-18T04:36:56;36;36;
81998;PMS5003;71598;46.516;-122.928;2023-11-18T04:39:21;33;33;
81998;PMS5003;71598;46.516;-122.928;2023-11-18T04:41:47;36;36;
81998;PMS5003;71598;46.516;-122.928;2023-11-18T04:44:12;38;36;
81998;PMS5003;71598;46.516;-122.928;2023-11-18T04:46:38;34;33;
81998;PMS5003;71598;46.516;-122.928;2023-11-18T04:49:03;37;36;
81998;PMS5003;71598;46.516;-122.928;2023-11-18T04:51:28;43;40;
81998;PMS5003;71598;46.516;-122.928;2023-11-18T04:53:54;40;37;
81998;PMS5003;71598;46.516;-122.928;2023-11-18T04:56:19;44;42;
81998;PMS5003;71598;46.516;-122.928;2023-11-18T04:58:45;41;41;
81998;PMS5003;71598;46.516;-122.928;2023-11-18T05:01:10;48;48;
81998;PMS5003;71598;46.516;-122.928;2023-11-18T05:03:35;45;44;
81998;PMS5003;71598;46.516;-122.928;2023-11-18T05:06:01;44;42;
81998;PMS5003;71598;46.516;-122.928;2023-11-18T05:08:27;51;48;
81998;PMS5003;71598;46.516;-122.928;2023-11-18T05:10:52;49;47;
81998;PMS5003;71598;46.516;-122.928;2023-11-18T05:13:25;55;52;
81998;PMS5003;71598;46.516;-122.928;2023-11-18T05:15:43;52;51;
81998;PMS5003;71598;46.516;-122.928;2023-11-18T05:18:10;49;48;
81998;PMS5003;71598;46.516;-122.928;2023-11-18T05:20:35;53;53;
81998;PMS5003;71598;46.516;-122.928;2023-11-18T05:23:00;49;48;
81998;PMS5003;71598;46.516;-122.928;2023-11-18T05:25:26;55;53;
81998;PMS5003;71598;46.516;-122.928;2023-11-18T05:27:50;56;53;
81998;PMS5003;71598;46.516;-122.928;2023-11-18T05:30:16;64;61;
81998;PMS5003;71598;46.516;-122.928;2023-11-18T05:32:42;62;60;
81998;PMS5003;71598;46.516;-122.928;2023-11-18T05:35:07;64;63;
81998;PMS5003;71598;46.516;-122.928;2023-11-18T05:37:34;64;62;
81998;PMS5003;71598;46.516;-122.928;2023-11-18T05:40:01;64;63;
81998;PMS5003;71598;46.516;-122.928;2023-11-18T05:42:23;62;61;
81998;PMS5003;71598;46.516;-122.928;2023-11-18T05:44:48;74;69;
81998;PMS5003;71598;46.516;-122.928;2023-11-18T05:47:13;74;68;
81998;PMS5003;71598;46.516;-122.928;2023-11-18T05:49:38;70;69;
81998;PMS5003;71598;46.516;-122.928;2023-11-18T05:52:04;71;69;
81998;PMS5003;71598;46.516;-122.928;2023-11-18T05:54:31;71;71;
81998;PMS5003;71598;46.516;-122.928;2023-11-18T05:56:55;69;67;
81998;PMS5003;71598;46.516;-122.928;2023-11-18T05:59:21;69;68;
81998;PMS5003;71598;46.516;-122.928;2023-11-18T06:01:47;75;75;
81998;PMS5003;71598;46.516;-122.928;2023-11-18T06:04:13;77;75;
81998;PMS5003;71598;46.516;-122.928;2023-11-18T06:06:37;78;76;
81998;PMS5003;71598;46.516;-122.928;2023-11-18T06:09:03;75;74;
81998;PMS5003;71598;46.516;-122.928;2023-11-18T06:11:30;81;76;
81998;PMS5003;71598;46.516;-122.928;2023-11-18T06:13:54;81;79;
81998;PMS5003;71598;46.516;-122.928;2023-11-18T06:16:21;73;71;
81998;PMS5003;71598;46.516;-122.928;2023-11-18T06:18:47;82;79;
81998;PMS5003;71598;46.516;-122.928;2023-11-18T06:21:12;79;76;
81998;PMS5003;71598;46.516;-122.928;2023-11-18T06:23:37;74;71;
81998;PMS5003;71598;46.516;-122.928;2023-11-18T06:26:03;80;77;
81998;PMS5003;71598;46.516;-122.928;2023-11-18T06:28:28;79;78;
81998;PMS5003;71598;46.516;-122.928;2023-11-18T06:30:53;69;68;
81998;PMS5003;71598;46.516;-122.928;2023-11-18T06:33:18;76;73;
81998;PMS5003;71598;46.516;-122.928;2023-11-18T06:35:43;84;79;
81998;PMS5003;71598;46.516;-122.928;2023-11-18T06:38:11;76;75;
81998;PMS5003;71598;46.516;-122.928;2023-11-18T06:40:35;75;75;
81998;PMS5003;71598;46.516;-122.928;2023-11-18T06:43:01;78;76;
81998;PMS5003;71598;46.516;-122.928;2023-11-18T06:45:25;77;75;
81998;PMS5003;71598;46.516;-122.928;2023-11-18T06:47:51;75;73;
81998;PMS5003;71598;46.516;-122.928;2023-11-18T06:50:16;76;74;
81998;PMS5003;71598;46.516;-122.928;2023-11-18T06:52:41;72;72;
81998;PMS5003;71598;46.516;-122.928;2023-11-18T06:55:07;77;74;
81998;PMS5003;71598;46.516;-122.928;2023-11-18T06:57:33;74;71;
81998;PMS5003;71598;46.516;-122.928;2023-11-18T06:59:58;81;80;
81998;PMS5003;71598;46.516;-122.928;2023-11-18T07:02:23;77;75;
81998;PMS5003;71598;46.516;-122.928;2023-11-18T07:04:49;72;70;
81998;PMS5003;71598;46.516;-122.928;2023-11-18T07:07:15;78;73;
81998;PMS5003;71598;46.516;-122.928;2023-11-18T07:09:40;77;75;
81998;PMS5003;71598;46.516;-122.928;2023-11-18T07:12:06;74;73;
81998;PMS5003;71598;46.516;-122.928;2023-11-18T07:14:32;73;71;
81998;PMS5003;71598;46.516;-122.928;2023-11-18T07:16:58;75;74;
81998;PMS5003;71598;46.516;-122.928;2023-11-18T07:19:24;80;75;
81998;PMS5003;71598;46.516;-122.928;2023-11-18T07:21:49;78;76;
81998;PMS5003;71598;46.516;-122.928;2023-11-18T07:24:14;76;73;
81998;PMS5003;71598;46.516;-122.928;2023-11-18T07:26:39;76;72;
81998;PMS5003;71598;46.516;-122.928;2023-11-18T07:29:04;71;68;
81998;PMS5003;71598;46.516;-122.928;2023-11-18T07:31:30;78;76;
81998;PMS5003;71598;46.516;-122.928;2023-11-18T07:33:56;82;78;
81998;PMS5003;71598;46.516;-122.928;2023-11-18T07:36:21;68;66;
81998;PMS5003;71598;46.516;-122.928;2023-11-18T07:38:47;74;71;
81998;PMS5003;71598;46.516;-122.928;2023-11-18T07:41:13;67;66;
81998;PMS5003;71598;46.516;-122.928;2023-11-18T07:43:38;73;70;
81998;PMS5003;71598;46.516;-122.928;2023-11-18T07:46:03;74;69;
81998;PMS5003;71598;46.516;-122.928;2023-11-18T07:48:28;78;73;
81998;PMS5003;71598;46.516;-122.928;2023-11-18T07:50:54;76;74;
81998;PMS5003;71598;46.516;-122.928;2023-11-18T07:53:19;77;74;
81998;PMS5003;71598;46.516;-122.928;2023-11-18T07:55:45;76;74;
81998;PMS5003;71598;46.516;-122.928;2023-11-18T07:58:10;76;73;
81998;PMS5003;71598;46.516;-122.928;2023-11-18T08:00:36;78;76;
81998;PMS5003;71598;46.516;-122.928;2023-11-18T08:03:01;80;78;
81998;PMS5003;71598;46.516;-122.928;2023-11-18T08:05:26;81;76;
81998;PMS5003;71598;46.516;-122.928;2023-11-18T08:07:52;80;75;
81998;PMS5003;71598;46.516;-122.928;2023-11-18T08:10:17;83;80;
81998;PMS5003;71598;46.516;-122.928;2023-11-18T08:12:43;80;79;
81998;PMS5003;71598;46.516;-122.928;2023-11-18T08:15:08;77;77;
81998;PMS5003;71598;46.516;-122.928;2023-11-18T08:17:33;83;82;
81998;PMS5003;71598;46.516;-122.928;2023-11-18T08:19:59;85;83;
81998;PMS5003;71598;46.516;-122.928;2023-11-18T08:22:28;89;84;
81998;PMS5003;71598;46.516;-122.928;2023-11-18T08:24:49;87;84;
81998;PMS5003;71598;46.516;-122.928;2023-11-18T08:27:15;87;85;
81998;PMS5003;71598;46.516;-122.928;2023-11-18T08:29:40;87;84;
81998;PMS5003;71598;46.516;-122.928;2023-11-18T08:32:06;91;89;
81998;PMS5003;71598;46.516;-122.928;2023-11-18T08:34:31;88;87;
81998;PMS5003;71598;46.516;-122.928;2023-11-18T08:36:57;93;89;
81998;PMS5003;71598;46.516;-122.928;2023-11-18T08:39:22;96;94;
81998;PMS5003;71598;46.516;-122.928;2023-11-18T08:41:49;96;92;
81998;PMS5003;71598;46.516;-122.928;2023-11-18T08:44:13;104;103;
81998;PMS5003;71598;46.516;-122.928;2023-11-18T08:46:38;93;91;
81998;PMS5003;71598;46.516;-122.928;2023-11-18T08:49:04;101;98;
81998;PMS5003;71598;46.516;-122.928;2023-11-18T08:51:29;97;94;
81998;PMS5003;71598;46.516;-122.928;2023-11-18T08:53:55;104;98;
81998;PMS5003;71598;46.516;-122.928;2023-11-18T08:56:21;104;102;
81998;PMS5003;71598;46.516;-122.928;2023-11-18T08:58:46;106;104;
81998;PMS5003;71598;46.516;-122.928;2023-11-18T09:01:12;104;99;
81998;PMS5003;71598;46.516;-122.928;2023-11-18T09:03:38;105;102;
81998;PMS5003;71598;46.516;-122.928;2023-11-18T09:06:05;107;102;
81998;PMS5003;71598;46.516;-122.928;2023-11-18T09:08:29;102;99;
81998;PMS5003;71598;46.516;-122.928;2023-11-18T09:10:54;117;110;
81998;PMS5003;71598;46.516;-122.928;2023-11-18T09:13:21;118;115;
81998;PMS5003;71598;46.516;-122.928;2023-11-18T09:15:45;110;108;
81998;PMS5003;71598;46.516;-122.928;2023-11-18T09:18:10;108;106;
81998;PMS5003;71598;46.516;-122.928;2023-11-18T09:20:36;113;111;
81998;PMS5003;71598;46.516;-122.928;2023-11-18T09:23:01;114;108;
81998;PMS5003;71598;46.516;-122.928;2023-11-18T09:25:26;112;110;
81998;PMS5003;71598;46.516;-122.928;2023-11-18T09:27:52;123;120;
81998;PMS5003;71598;46.516;-122.928;2023-11-18T09:30:18;107;103;
81998;PMS5003;71598;46.516;-122.928;2023-11-18T09:32:43;114;109;
81998;PMS5003;71598;46.516;-122.928;2023-11-18T09:35:08;112;111;
81998;PMS5003;71598;46.516;-122.928;2023-11-18T09:37:33;119;114;
81998;PMS5003;71598;46.516;-122.928;2023-11-18T09:39:59;113;110;
81998;PMS5003;71598;46.516;-122.928;2023-11-18T09:42:26;122;117;
81998;PMS5003;71598;46.516;-122.928;2023-11-18T09:44:50;120;117;
81998;PMS5003;71598;46.516;-122.928;2023-11-18T09:47:15;132;122;
81998;PMS5003;71598;46.516;-122.928;2023-11-18T09:49:43;124;121;
81998;PMS5003;71598;46.516;-122.928;2023-11-18T09:52:06;125;118;
81998;PMS5003;71598;46.516;-122.928;2023-11-18T09:54:33;121;120;
81998;PMS5003;71598;46.516;-122.928;2023-11-18T09:56:59;117;111;
81998;PMS5003;71598;46.516;-122.928;2023-11-18T09:59:23;124;121;
81998;PMS5003;71598;46.516;-122.928;2023-11-18T10:01:49;122;118;
81998;PMS5003;71598;46.516;-122.928;2023-11-18T10:04:13;123;118;
81998;PMS5003;71598;46.516;-122.928;2023-11-18T10:06:38;113;110;
81998;PMS5003;71598;46.516;-122.928;2023-11-18T10:09:03;126;117;
81998;PMS5003;71598;46.516;-122.928;2023-11-18T10:11:29;110;108;
81998;PMS5003;71598;46.516;-122.928;2023-11-18T10:13:53;122;118;
81998;PMS5003;71598;46.516;-122.928;2023-11-18T10:16:18;121;116;
81998;PMS5003;71598;46.516;-122.928;2023-11-18T10:18:44;113;107;
81998;PMS5003;71598;46.516;-122.928;2023-11-18T10:21:10;119;114;
81998;PMS5003;71598;46.516;-122.928;2023-11-18T10:23:36;115;110;
81998;PMS5003;71598;46.516;-122.928;2023-11-18T10:26:01;105;103;
81998;PMS5003;71598;46.516;-122.928;2023-11-18T10:28:27;117;110;
81998;PMS5003;71598;46.516;-122.928;2023-11-18T10:30:53;115;112;
81998;PMS5003;71598;46.516;-122.928;2023-11-18T10:33:19;111;110;
81998;PMS5003;71598;46.516;-122.928;2023-11-18T10:35:50;108;107;
81998;PMS5003;71598;46.516;-122.928;2023-11-18T10:38:09;108;106;
81998;PMS5003;71598;46.516;-122.928;2023-11-18T10:40:34;119;116;
81998;PMS5003;71598;46.516;-122.928;2023-11-18T10:43:00;111;106;
81998;PMS5003;71598;46.516;-122.928;2023-11-18T10:45:26;110;108;
81998;PMS5003;71598;46.516;-122.928;2023-11-18T10:47:51;110;105;
81998;PMS5003;71598;46.516;-122.928;2023-11-18T10:50:17;105;104;
81998;PMS5003;71598;46.516;-122.928;2023-11-18T10:52:43;111;108;
81998;PMS5003;71598;46.516;-122.928;2023-11-18T10:55:09;108;102;
81998;PMS5003;71598;46.516;-122.928;2023-11-18T10:57:34;105;100;
81998;PMS5003;71598;46.516;-122.928;2023-11-18T11:00:00;104;101;
81998;PMS5003;71598;46.516;-122.928;2023-11-18T11:02:25;97;88;
81998;PMS5003;71598;46.516;-122.928;2023-11-18T11:04:50;102;101;
81998;PMS5003;71598;46.516;-122.928;2023-11-18T11:07:15;101;101;
81998;PMS5003;71598;46.516;-122.928;2023-11-18T11:09:41;104;100;
81998;PMS5003;71598;46.516;-122.928;2023-11-18T11:12:10;99;97;
81998;PMS5003;71598;46.516;-122.928;2023-11-18T11:14:32;102;99;
81998;PMS5003;71598;46.516;-122.928;2023-11-18T11:16:57;97;95;
81998;PMS5003;71598;46.516;-122.928;2023-11-18T11:19:25;100;94;
81998;PMS5003;71598;46.516;-122.928;2023-11-18T11:21:50;98;91;
81998;PMS5003;71598;46.516;-122.928;2023-11-18T11:24:16;95;93;
81998;PMS5003;71598;46.516;-122.928;2023-11-18T11:26:40;104;97;
81998;PMS5003;71598;46.516;-122.928;2023-11-18T11:29:07;97;92;
81998;PMS5003;71598;46.516;-122.928;2023-11-18T11:31:31;99;93;
81998;PMS5003;71598;46.516;-122.928;2023-11-18T11:33:57;91;88;
81998;PMS5003;71598;46.516;-122.928;2023-11-18T11:36:20;96;89;
81998;PMS5003;71598;46.516;-122.928;2023-11-18T11:38:46;95;90;
81998;PMS5003;71598;46.516;-122.928;2023-11-18T11:41:11;87;82;
81998;PMS5003;71598;46.516;-122.928;2023-11-18T11:43:38;90;85;
81998;PMS5003;71598;46.516;-122.928;2023-11-18T11:46:04;96;90;
81998;PMS5003;71598;46.516;-122.928;2023-11-18T11:48:28;88;83;
81998;PMS5003;71598;46.516;-122.928;2023-11-18T11:50:57;95;92;
81998;PMS5003;71598;46.516;-122.928;2023-11-18T11:53:20;89;86;
81998;PMS5003;71598;46.516;-122.928;2023-11-18T11:55:45;85;81;
81998;PMS5003;71598;46.516;-122.928;2023-11-18T11:58:25;92;86;
81998;PMS5003;71598;46.516;-122.928;2023-11-18T12:00:35;83;80;
81998;PMS5003;71598;46.516;-122.928;2023-11-18T12:03:01;86;84;
81998;PMS5003;71598;46.516;-122.928;2023-11-18T12:05:26;79;76;
81998;PMS5003;71598;46.516;-122.928;2023-11-18T12:07:52;84;79;
81998;PMS5003;71598;46.516;-122.928;2023-11-18T12:10:17;81;79;
81998;PMS5003;71598;46.516;-122.928;2023-11-18T12:12:43;80;78;
81998;PMS5003;71598;46.516;-122.928;2023-11-18T12:15:09;85;79;
81998;PMS5003;71598;46.516;-122.928;2023-11-18T12:17:34;79;77;
81998;PMS5003;71598;46.516;-122.928;2023-11-18T12:19:59;76;73;
81998;PMS5003;71598;46.516;-122.928;2023-11-18T12:22:25;80;78;
81998;PMS5003;71598;46.516;-122.928;2023-11-18T12:25:28;77;74;
81998;PMS5003;71598;46.516;-122.928;2023-11-18T12:27:16;74;73;
81998;PMS5003;71598;46.516;-122.928;2023-11-18T12:29:41;70;68;
81998;PMS5003;71598;46.516;-122.928;2023-11-18T12:32:07;64;64;
81998;PMS5003;71598;46.516;-122.928;2023-11-18T12:35:05;61;58;
81998;PMS5003;71598;46.516;-122.928;2023-11-18T12:37:10;73;70;
81998;PMS5003;71598;46.516;-122.928;2023-11-18T12:39:37;75;70;
81998;PMS5003;71598;46.516;-122.928;2023-11-18T12:41:55;75;68;
81998;PMS5003;71598;46.516;-122.928;2023-11-18T12:44:15;69;66;
81998;PMS5003;71598;46.516;-122.928;2023-11-18T12:46:46;68;67;
81998;PMS5003;71598;46.516;-122.928;2023-11-18T12:49:05;67;66;
81998;PMS5003;71598;46.516;-122.928;2023-11-18T12:51:31;63;62;
81998;PMS5003;71598;46.516;-122.928;2023-11-18T12:53:56;63;59;
81998;PMS5003;71598;46.516;-122.928;2023-11-18T12:56:22;65;61;
81998;PMS5003;71598;46.516;-122.928;2023-11-18T12:58:48;61;58;
81998;PMS5003;71598;46.516;-122.928;2023-11-18T13:01:13;62;59;
81998;PMS5003;71598;46.516;-122.928;2023-11-18T13:03:38;59;57;
81998;PMS5003;71598;46.516;-122.928;2023-11-18T13:06:04;62;61;
81998;PMS5003;71598;46.516;-122.928;2023-11-18T13:08:30;57;56;
81998;PMS5003;71598;46.516;-122.928;2023-11-18T13:10:55;59;57;
81998;PMS5003;71598;46.516;-122.928;2023-11-18T13:13:20;50;50;
81998;PMS5003;71598;46.516;-122.928;2023-11-18T13:15:46;58;55;
81998;PMS5003;71598;46.516;-122.928;2023-11-18T13:18:10;57;53;
81998;PMS5003;71598;46.516;-122.928;2023-11-18T13:20:35;49;47;
81998;PMS5003;71598;46.516;-122.928;2023-11-18T13:23:01;50;47;
81998;PMS5003;71598;46.516;-122.928;2023-11-18T13:25:26;45;44;
81998;PMS5003;71598;46.516;-122.928;2023-11-18T13:27:52;45;44;
81998;PMS5003;71598;46.516;-122.928;2023-11-18T13:30:17;47;46;
81998;PMS5003;71598;46.516;-122.928;2023-11-18T13:32:43;44;43;
81998;PMS5003;71598;46.516;-122.928;2023-11-18T13:35:10;46;44;
81998;PMS5003;71598;46.516;-122.928;2023-11-18T13:37:34;48;47;
81998;PMS5003;71598;46.516;-122.928;2023-11-18T13:39:59;43;41;
81998;PMS5003;71598;46.516;-122.928;2023-11-18T13:42:25;42;41;
81998;PMS5003;71598;46.516;-122.928;2023-11-18T13:44:51;40;39;
81998;PMS5003;71598;46.516;-122.928;2023-11-18T13:47:17;41;40;
81998;PMS5003;71598;46.516;-122.928;2023-11-18T13:49:40;38;35;
81998;PMS5003;71598;46.516;-122.928;2023-11-18T13:52:06;39;39;
81998;PMS5003;71598;46.516;-122.928;2023-11-18T13:54:32;35;35;
81998;PMS5003;71598;46.516;-122.928;2023-11-18T13:56:58;30;30;
81998;PMS5003;71598;46.516;-122.928;2023-11-18T13:59:23;36;36;
81998;PMS5003;71598;46.516;-122.928;2023-11-18T14:01:48;36;34;
81998;PMS5003;71598;46.516;-122.928;2023-11-18T14:04:13;31;31;
81998;PMS5003;71598;46.516;-122.928;2023-11-18T14:06:39;34;34;
81998;PMS5003;71598;46.516;-122.928;2023-11-18T14:09:05;31;31;
81998;PMS5003;71598;46.516;-122.928;2023-11-18T14:11:30;33;31;
81998;PMS5003;71598;46.516;-122.928;2023-11-18T14:13:55;27;27;
81998;PMS5003;71598;46.516;-122.928;2023-11-18T14:16:20;30;30;
81998;PMS5003;71598;46.516;-122.928;2023-11-18T14:18:46;30;29;
81998;PMS5003;71598;46.516;-122.928;2023-11-18T14:21:11;27;26;
81998;PMS5003;71598;46.516;-122.928;2023-11-18T14:23:36;26;26;
81998;PMS5003;71598;46.516;-122.928;2023-11-18T14:26:01;26;25;
81998;PMS5003;71598;46.516;-122.928;2023-11-18T14:28:27;26;24;
81998;PMS5003;71598;46.516;-122.928;2023-11-18T14:30:52;30;28;
81998;PMS5003;71598;46.516;-122.928;2023-11-18T14:33:18;29;28;
81998;PMS5003;71598;46.516;-122.928;2023-11-18T14:35:45;25;25;
81998;PMS5003;71598;46.516;-122.928;2023-11-18T14:38:11;26;25;
81998;PMS5003;71598;46.516;-122.928;2023-11-18T14:40:35;28;28;
81998;PMS5003;71598;46.516;-122.928;2023-11-18T14:43:00;23;22;
81998;PMS5003;71598;46.516;-122.928;2023-11-18T14:45:26;22;22;
81998;PMS5003;71598;46.516;-122.928;2023-11-18T14:47:50;26;25;
81998;PMS5003;71598;46.516;-122.928;2023-11-18T14:50:19;24;21;
81998;PMS5003;71598;46.516;-122.928;2023-11-18T14:52:43;21;21;
81998;PMS5003;71598;46.516;-122.928;2023-11-18T14:55:08;20;19;
81998;PMS5003;71598;46.516;-122.928;2023-11-18T14:57:33;18;16;
81998;PMS5003;71598;46.516;-122.928;2023-11-18T14:59:58;17;17;
81998;PMS5003;71598;46.516;-122.928;2023-11-18T15:02:24;19;18;
81998;PMS5003;71598;46.516;-122.928;2023-11-18T15:04:49;17;16;
81998;PMS5003;71598;46.516;-122.928;2023-11-18T15:07:15;20;19;
81998;PMS5003;71598;46.516;-122.928;2023-11-18T15:09:40;17;16;
81998;PMS5003;71598;46.516;-122.928;2023-11-18T15:12:05;17;17;
81998;PMS5003;71598;46.516;-122.928;2023-11-18T15:14:30;16;15;
81998;PMS5003;71598;46.516;-122.928;2023-11-18T15:16:56;20;18;
81998;PMS5003;71598;46.516;-122.928;2023-11-18T15:19:21;20;18;
81998;PMS5003;71598;46.516;-122.928;2023-11-18T15:21:46;15;15;
81998;PMS5003;71598;46.516;-122.928;2023-11-18T15:24:14;16;16;
81998;PMS5003;71598;46.516;-122.928;2023-11-18T15:26:38;15;15;
81998;PMS5003;71598;46.516;-122.928;2023-11-18T15:29:03;12;12;
81998;PMS5003;71598;46.516;-122.928;2023-11-18T15:31:29;22;20;
81998;PMS5003;71598;46.516;-122.928;2023-11-18T15:33:53;13;13;
81998;PMS5003;71598;46.516;-122.928;2023-11-18T15:36:19;14;13;
81998;PMS5003;71598;46.516;-122.928;2023-11-18T15:38:43;16;15;
81998;PMS5003;71598;46.516;-122.928;2023-11-18T15:41:10;13;13;